Time;durP1;ratioP1;P1;durP2;ratioP2;P2;SDS_P1;SDS_P2;PMS_P1;PMS_P2;Temp;Humidity;BMP_temperature;BMP_pressure;BME280_temperature;BME280_humidity;BME280_pressure;Samples;Min_cycle;Max_cycle;Signal;HPM_P1;HPM_P2
2023/04/30 00:01:05;;;;;;;2.77;1.83;;;13.90;69.70;;;;;;4910353;29;20204;-78
2023/04/30 00:03:34;;;;;;;3.43;1.73;;;13.90;69.80;;;;;;4912217;29;20207;-78
2023/04/30 00:06:02;;;;;;;2.93;1.90;;;13.90;69.80;;;;;;4912779;29;20200;-78
2023/04/30 00:08:31;;;;;;;1.77;1.47;;;13.80;69.70;;;;;;4911853;29;20290;-78
2023/04/30 00:10:59;;;;;;;2.20;1.47;;;13.80;70.00;;;;;;4911773;29;20665;-78
2023/04/30 00:13:27;;;;;;;4.83;1.83;;;13.80;69.90;;;;;;4918305;29;20310;-78
2023/04/30 00:15:56;;;;;;;2.87;1.77;;;13.80;69.90;;;;;;4911210;29;20200;-78
2023/04/30 00:18:25;;;;;;;3.93;1.53;;;13.80;69.80;;;;;;4907935;29;20212;-78
2023/04/30 00:20:54;;;;;;;3.30;1.90;;;13.80;70.00;;;;;;4912872;29;20218;-78
2023/04/30 00:23:22;;;;;;;2.60;1.87;;;13.90;69.90;;;;;;4912090;29;20203;-78
2023/04/30 00:25:50;;;;;;;2.53;1.70;;;13.90;70.10;;;;;;4908960;29;20235;-79
2023/04/30 00:28:19;;;;;;;4.17;2.13;;;13.90;70.00;;;;;;4912192;29;20207;-78
2023/04/30 00:30:47;;;;;;;4.37;2.50;;;13.80;70.00;;;;;;4913650;29;20236;-78
2023/04/30 00:33:16;;;;;;;1.90;1.27;;;13.80;70.00;;;;;;4905074;29;20719;-78
2023/04/30 00:35:45;;;;;;;4.43;1.83;;;13.80;70.00;;;;;;4909241;29;20251;-78
2023/04/30 00:38:14;;;;;;;6.23;3.10;;;13.80;70.10;;;;;;4912469;29;20232;-77
2023/04/30 00:40:43;;;;;;;5.33;2.67;;;13.80;70.40;;;;;;4908897;29;20227;-78
2023/04/30 00:43:11;;;;;;;14.40;2.57;;;13.80;70.60;;;;;;4911604;29;20204;-78
2023/04/30 00:45:40;;;;;;;5.83;3.07;;;13.70;70.90;;;;;;4912847;29;20204;-78
2023/04/30 00:48:08;;;;;;;5.80;3.40;;;13.70;70.70;;;;;;4912161;29;21294;-78
2023/04/30 00:50:37;;;;;;;8.27;3.27;;;13.70;70.80;;;;;;4911731;29;20685;-78
2023/04/30 00:53:07;;;;;;;6.50;3.20;;;13.70;71.10;;;;;;4907725;29;20222;-78
2023/04/30 00:55:36;;;;;;;4.90;2.40;;;13.60;71.20;;;;;;4913202;29;20208;-78
2023/04/30 00:58:05;;;;;;;5.27;3.33;;;13.60;71.30;;;;;;4912864;29;20263;-78
2023/04/30 01:00:34;;;;;;;7.00;3.20;;;13.60;71.40;;;;;;4912716;29;20580;-78
2023/04/30 01:03:02;;;;;;;6.47;2.90;;;13.60;71.50;;;;;;4913195;29;20905;-79
2023/04/30 01:05:31;;;;;;;14.73;4.23;;;13.50;71.60;;;;;;4911436;29;20269;-78
2023/04/30 01:08:00;;;;;;;5.23;3.53;;;13.50;71.70;;;;;;4913516;29;20252;-78
2023/04/30 01:10:36;;;;;;;3.80;2.73;;;13.50;71.60;;;;;;4910770;29;20204;-78
2023/04/30 01:13:10;;;;;;;8.87;3.13;;;13.50;71.70;;;;;;4905641;29;20212;-78
2023/04/30 01:15:43;;;;;;;8.67;4.40;;;13.50;71.90;;;;;;4915883;29;20202;-78
2023/04/30 01:18:18;;;;;;;10.93;3.13;;;13.40;71.80;;;;;;4912340;29;20199;-78
2023/04/30 01:20:52;;;;;;;8.23;3.40;;;13.40;71.90;;;;;;4912984;29;20291;-78
2023/04/30 01:23:36;;;;;;;7.67;3.87;;;13.40;71.90;;;;;;4903699;29;20255;-78
2023/04/30 01:26:14;;;;;;;5.87;3.03;;;13.30;72.10;;;;;;4910913;29;20203;-78
2023/04/30 01:28:45;;;;;;;9.93;3.80;;;13.30;72.10;;;;;;4907727;29;20196;-78
2023/04/30 01:31:15;;;;;;;4.20;2.70;;;13.30;72.10;;;;;;4912593;29;20275;-78
2023/04/30 01:33:43;;;;;;;7.53;3.07;;;13.20;72.10;;;;;;4907635;29;20596;-79
2023/04/30 01:36:30;;;;;;;10.87;4.63;;;13.20;72.10;;;;;;4915183;29;20717;-78
2023/04/30 01:39:22;;;;;;;7.60;3.10;;;13.20;72.20;;;;;;4909067;29;20196;-78
2023/04/30 01:41:58;;;;;;;7.97;4.10;;;13.20;72.50;;;;;;4914045;29;20553;-79
2023/04/30 01:44:49;;;;;;;7.67;4.63;;;13.10;72.80;;;;;;4910207;29;20196;-78
2023/04/30 01:47:29;;;;;;;9.27;5.23;;;13.10;72.90;;;;;;4909956;29;20658;-79
2023/04/30 01:50:08;;;;;;;7.40;4.00;;;13.10;72.90;;;;;;4909014;29;20836;-78
2023/04/30 01:52:41;;;;;;;5.47;3.43;;;13.00;72.90;;;;;;4913972;29;20235;-78
2023/04/30 01:55:14;;;;;;;7.33;4.20;;;13.10;72.80;;;;;;4909313;29;20215;-78
2023/04/30 01:57:50;;;;;;;8.80;4.13;;;13.10;72.80;;;;;;4914183;29;20200;-78
2023/04/30 02:00:20;;;;;;;8.03;3.47;;;13.10;73.10;;;;;;4909809;29;20219;-78
2023/04/30 02:02:49;;;;;;;8.70;4.40;;;13.00;73.10;;;;;;4912992;29;20232;-78
2023/04/30 02:05:17;;;;;;;9.30;3.77;;;13.00;73.30;;;;;;4909711;29;20200;-78
2023/04/30 02:07:48;;;;;;;10.10;3.97;;;13.00;73.30;;;;;;4906254;29;20212;-78
2023/04/30 02:10:18;;;;;;;6.90;3.90;;;13.00;73.50;;;;;;4907513;29;20266;-78
2023/04/30 02:12:46;;;;;;;9.03;4.93;;;13.00;73.50;;;;;;4910320;29;20200;-78
2023/04/30 02:15:15;;;;;;;6.83;4.00;;;13.00;73.70;;;;;;4909456;29;20216;-78
2023/04/30 02:17:45;;;;;;;10.77;4.57;;;13.00;73.70;;;;;;4909772;29;20212;-77
2023/04/30 02:20:13;;;;;;;5.93;5.33;;;12.90;74.20;;;;;;4909883;29;20200;-79
2023/04/30 02:22:41;;;;;;;7.93;4.43;;;12.90;74.20;;;;;;4908796;29;20208;-78
2023/04/30 02:25:11;;;;;;;6.30;4.30;;;12.90;74.10;;;;;;4906416;29;20256;-79
2023/04/30 02:27:40;;;;;;;6.30;3.53;;;12.90;74.10;;;;;;4913041;29;20204;-78
2023/04/30 02:30:09;;;;;;;7.40;2.73;;;12.90;74.00;;;;;;4915313;29;20231;-78
2023/04/30 02:32:37;;;;;;;10.90;4.50;;;12.90;74.10;;;;;;4916866;29;20618;-78
2023/04/30 02:35:07;;;;;;;7.30;4.80;;;12.90;74.40;;;;;;4914920;29;20224;-78
2023/04/30 02:37:36;;;;;;;8.57;4.43;;;12.80;74.40;;;;;;4913602;29;20196;-78
2023/04/30 02:40:05;;;;;;;6.70;4.40;;;12.80;74.60;;;;;;4912451;29;20199;-78
2023/04/30 02:42:33;;;;;;;10.03;4.13;;;12.80;74.80;;;;;;4911075;29;20299;-77
2023/04/30 02:45:02;;;;;;;8.30;5.43;;;12.80;74.70;;;;;;4914603;29;20209;-78
2023/04/30 02:47:30;;;;;;;9.33;4.30;;;12.70;74.90;;;;;;4915458;29;20430;-78
2023/04/30 02:49:58;;;;;;;6.20;4.00;;;12.70;75.00;;;;;;4911533;29;20207;-78
2023/04/30 02:52:28;;;;;;;7.83;5.10;;;12.70;74.90;;;;;;4912923;29;20212;-78
2023/04/30 02:54:56;;;;;;;4.23;2.47;;;12.70;74.90;;;;;;4912158;29;20230;-78
2023/04/30 02:57:25;;;;;;;6.07;4.00;;;12.70;74.90;;;;;;4912705;29;20208;-78
2023/04/30 02:59:53;;;;;;;5.23;3.97;;;12.70;74.90;;;;;;4907952;29;20952;-78
2023/04/30 03:02:22;;;;;;;8.70;5.33;;;12.70;75.30;;;;;;4910515;29;20239;-78
2023/04/30 03:04:51;;;;;;;6.07;3.37;;;12.70;75.30;;;;;;4907465;29;20199;-78
2023/04/30 03:07:19;;;;;;;14.27;4.73;;;12.70;75.30;;;;;;4905845;29;20215;-78
2023/04/30 03:09:49;;;;;;;5.23;3.17;;;12.70;75.50;;;;;;4910664;29;20271;-78
2023/04/30 03:12:17;;;;;;;4.50;3.30;;;12.70;75.40;;;;;;4914562;29;20697;-79
2023/04/30 03:14:45;;;;;;;8.43;3.80;;;12.70;75.40;;;;;;4911021;29;20298;-79
2023/04/30 03:17:14;;;;;;;4.70;3.20;;;12.70;75.50;;;;;;4910117;29;20233;-78
2023/04/30 03:19:42;;;;;;;5.90;4.23;;;12.70;75.50;;;;;;4907395;29;20268;-78
2023/04/30 03:22:11;;;;;;;8.43;4.77;;;12.70;75.50;;;;;;4913971;29;20200;-78
2023/04/30 03:24:40;;;;;;;6.87;4.00;;;12.70;75.60;;;;;;4909854;29;20208;-78
2023/04/30 03:27:09;;;;;;;7.43;3.90;;;12.70;75.60;;;;;;4909664;29;20291;-78
2023/04/30 03:29:38;;;;;;;12.90;5.10;;;12.70;75.60;;;;;;4863977;29;1212506;-77
2023/04/30 03:32:06;;;;;;;11.70;3.90;;;12.70;75.50;;;;;;4907209;29;20271;-78
2023/04/30 03:34:34;;;;;;;15.00;6.13;;;12.70;75.60;;;;;;4907713;29;20227;-78
2023/04/30 03:37:03;;;;;;;8.67;5.37;;;12.70;75.60;;;;;;4915924;29;20694;-78
2023/04/30 03:39:31;;;;;;;11.50;5.23;;;12.80;75.80;;;;;;4910349;29;20200;-77
2023/04/30 03:42:02;;;;;;;10.63;5.53;;;12.80;75.80;;;;;;4910653;29;20240;-77
2023/04/30 03:44:32;;;;;;;5.03;3.83;;;12.80;75.80;;;;;;4911318;29;20291;-78
2023/04/30 03:47:00;;;;;;;6.10;3.57;;;12.90;75.80;;;;;;4914785;29;20200;-78
2023/04/30 03:49:28;;;;;;;11.30;4.90;;;12.90;75.60;;;;;;4910233;29;20286;-78
2023/04/30 03:51:57;;;;;;;5.67;4.23;;;12.90;75.60;;;;;;4914397;29;20265;-79
2023/04/30 03:54:25;;;;;;;14.70;5.00;;;12.90;76.50;;;;;;4906586;29;20200;-78
2023/04/30 03:56:53;;;;;;;10.00;5.17;;;12.90;75.80;;;;;;4913968;29;20243;-78
2023/04/30 03:59:22;;;;;;;8.13;4.23;;;13.00;75.90;;;;;;4909027;29;20255;-77
2023/04/30 04:01:52;;;;;;;7.37;3.93;;;13.00;76.10;;;;;;4913883;29;20322;-78
2023/04/30 04:04:21;;;;;;;5.93;4.17;;;13.00;76.20;;;;;;4911181;29;20234;-77
2023/04/30 04:06:49;;;;;;;8.40;4.63;;;13.00;76.50;;;;;;4914622;29;20307;-77
2023/04/30 04:09:17;;;;;;;7.77;3.70;;;13.00;76.50;;;;;;4907407;29;20287;-78
2023/04/30 04:11:46;;;;;;;6.93;3.67;;;13.00;76.50;;;;;;4913828;29;20200;-78
2023/04/30 04:14:15;;;;;;;7.07;3.63;;;13.00;76.50;;;;;;4906807;29;20220;-78
2023/04/30 04:16:43;;;;;;;5.70;3.27;;;13.10;76.40;;;;;;4912461;29;20204;-78
2023/04/30 04:19:13;;;;;;;3.90;2.23;;;13.10;76.40;;;;;;4907719;29;20212;-78
2023/04/30 04:21:41;;;;;;;7.10;4.33;;;13.20;76.20;;;;;;4910451;29;20291;-79
2023/04/30 04:24:10;;;;;;;4.90;3.20;;;13.20;76.10;;;;;;4910075;29;20271;-78
2023/04/30 04:26:38;;;;;;;7.03;4.50;;;13.20;76.80;;;;;;4910641;29;20196;-77
2023/04/30 04:29:08;;;;;;;6.53;4.17;;;13.20;76.90;;;;;;4907503;29;20200;-79
2023/04/30 04:31:37;;;;;;;7.87;4.03;;;13.20;76.60;;;;;;4909595;29;20280;-78
2023/04/30 04:34:06;;;;;;;9.93;3.80;;;13.30;76.50;;;;;;4908914;29;20227;-78
2023/04/30 04:36:35;;;;;;;7.73;3.37;;;13.30;76.40;;;;;;4911377;29;20223;-78
2023/04/30 04:39:04;;;;;;;8.10;3.80;;;13.40;76.70;;;;;;4908691;29;20203;-78
2023/04/30 04:41:33;;;;;;;7.93;4.07;;;13.40;76.60;;;;;;4912559;29;20207;-79
2023/04/30 04:44:02;;;;;;;8.47;4.67;;;13.40;77.00;;;;;;4906672;29;20277;-77
2023/04/30 04:46:31;;;;;;;5.73;3.60;;;13.40;78.10;;;;;;4913368;29;20613;-78
2023/04/30 04:49:00;;;;;;;12.80;3.37;;;13.40;77.40;;;;;;4904634;29;20251;-78
2023/04/30 04:51:32;;;;;;;8.70;4.17;;;13.50;77.30;;;;;;4913548;29;20207;-78
2023/04/30 04:54:02;;;;;;;7.63;3.40;;;13.50;77.50;;;;;;4906537;29;20495;-78
2023/04/30 04:56:30;;;;;;;9.50;4.77;;;13.50;77.70;;;;;;4911593;29;20228;-79
2023/04/30 04:58:59;;;;;;;8.60;3.90;;;13.50;77.50;;;;;;4908143;29;20260;-78
2023/04/30 05:01:32;;;;;;;6.40;3.17;;;13.50;77.70;;;;;;4910452;29;20203;-79
2023/04/30 05:04:01;;;;;;;6.07;3.87;;;13.50;78.00;;;;;;4905631;29;20196;-78
2023/04/30 05:06:30;;;;;;;6.50;2.97;;;13.60;78.00;;;;;;4908688;29;20202;-78
2023/04/30 05:08:59;;;;;;;6.67;4.13;;;13.60;77.70;;;;;;4905846;29;20668;-78
2023/04/30 05:11:29;;;;;;;9.83;5.67;;;13.60;77.90;;;;;;4907115;29;20589;-78
2023/04/30 05:14:00;;;;;;;6.87;3.90;;;13.70;78.20;;;;;;4904961;29;20960;-78
2023/04/30 05:16:31;;;;;;;6.27;4.20;;;13.70;77.90;;;;;;4907703;29;20219;-79
2023/04/30 05:19:00;;;;;;;11.60;4.67;;;13.70;78.00;;;;;;4908427;29;20662;-78
2023/04/30 05:21:30;;;;;;;8.43;4.47;;;13.80;78.00;;;;;;4907638;29;20208;-79
2023/04/30 05:23:59;;;;;;;7.53;4.60;;;13.80;78.70;;;;;;4903215;29;20204;-79
2023/04/30 05:26:32;;;;;;;6.43;3.90;;;13.80;79.20;;;;;;4902437;29;20720;-79
2023/04/30 05:29:02;;;;;;;7.93;5.07;;;13.90;79.10;;;;;;4907900;29;20203;-78
2023/04/30 05:31:31;;;;;;;8.43;4.33;;;13.90;80.10;;;;;;4904378;29;20745;-79
2023/04/30 05:34:02;;;;;;;11.40;4.37;;;14.00;79.70;;;;;;4909202;29;20202;-78
2023/04/30 05:36:31;;;;;;;10.27;5.10;;;14.00;79.40;;;;;;4908664;29;20715;-78
2023/04/30 05:38:59;;;;;;;6.03;3.63;;;14.00;79.10;;;;;;4905876;29;20200;-79
2023/04/30 05:41:27;;;;;;;12.83;3.87;;;14.10;78.90;;;;;;4906189;29;20228;-78
2023/04/30 05:44:03;;;;;;;6.07;3.13;;;14.20;78.80;;;;;;4908295;29;20279;-78
2023/04/30 05:46:32;;;;;;;16.97;5.00;;;14.30;78.80;;;;;;4909097;29;20306;-79
2023/04/30 05:49:00;;;;;;;4.70;3.07;;;14.30;78.70;;;;;;4908423;29;20267;-78
2023/04/30 05:51:31;;;;;;;8.70;4.03;;;14.40;78.70;;;;;;4909549;29;20614;-78
2023/04/30 05:53:59;;;;;;;6.27;3.93;;;14.50;78.70;;;;;;4908091;29;20223;-78
2023/04/30 05:56:28;;;;;;;7.53;3.73;;;14.60;78.60;;;;;;4907768;29;20640;-78
2023/04/30 05:58:57;;;;;;;10.27;4.87;;;14.70;78.40;;;;;;4907117;29;20220;-79
2023/04/30 06:01:28;;;;;;;7.60;3.80;;;14.70;78.10;;;;;;4907799;29;20264;-78
2023/04/30 06:03:57;;;;;;;5.70;3.30;;;14.80;78.00;;;;;;4912581;29;20312;-78
2023/04/30 06:06:25;;;;;;;6.33;3.77;;;14.90;77.70;;;;;;4913562;29;20200;-78
2023/04/30 06:08:54;;;;;;;6.10;3.10;;;15.10;77.60;;;;;;4911754;29;20210;-78
2023/04/30 06:11:24;;;;;;;9.60;4.60;;;15.10;77.40;;;;;;4908173;29;20275;-77
2023/04/30 06:13:52;;;;;;;7.73;3.73;;;15.20;76.20;;;;;;4913064;29;20199;-77
2023/04/30 06:16:22;;;;;;;11.53;6.13;;;15.30;76.30;;;;;;4906484;29;20325;-78
2023/04/30 06:18:51;;;;;;;11.33;5.37;;;15.40;76.30;;;;;;4909504;29;20225;-77
2023/04/30 06:21:24;;;;;;;7.73;4.47;;;15.50;75.50;;;;;;4908635;29;20294;-77
2023/04/30 06:23:53;;;;;;;11.80;4.20;;;15.50;75.50;;;;;;4903864;29;20595;-78
2023/04/30 06:26:21;;;;;;;6.37;4.00;;;15.60;75.20;;;;;;4911924;29;20645;-77
2023/04/30 06:28:49;;;;;;;7.57;4.13;;;15.70;75.00;;;;;;4908326;29;20832;-77
2023/04/30 06:31:18;;;;;;;9.37;3.77;;;15.80;74.80;;;;;;4904972;29;20279;-78
2023/04/30 06:33:49;;;;;;;9.03;4.10;;;15.90;74.60;;;;;;4909454;29;20207;-78
2023/04/30 06:36:18;;;;;;;9.23;4.83;;;16.00;74.40;;;;;;4907579;29;20586;-77
2023/04/30 06:38:46;;;;;;;11.03;5.40;;;16.10;74.20;;;;;;4906995;29;20203;-77
2023/04/30 06:41:15;;;;;;;8.70;4.00;;;16.10;73.80;;;;;;4914495;29;20211;-77
2023/04/30 06:43:44;;;;;;;9.13;4.20;;;16.20;73.50;;;;;;4906511;29;20203;-77
2023/04/30 06:46:13;;;;;;;9.93;5.13;;;16.30;73.10;;;;;;4903523;29;20204;-76
2023/04/30 06:48:42;;;;;;;10.83;4.20;;;16.50;73.10;;;;;;4904391;29;20315;-76
2023/04/30 06:51:12;;;;;;;6.23;2.57;;;16.60;73.60;;;;;;4908009;29;20247;-78
2023/04/30 06:53:40;;;;;;;4.63;2.70;;;16.70;72.20;;;;;;4907190;29;20638;-77
2023/04/30 06:56:08;;;;;;;10.13;4.53;;;16.80;71.20;;;;;;4908440;29;20220;-78
2023/04/30 06:58:37;;;;;;;10.37;4.60;;;16.90;71.20;;;;;;4901217;29;20208;-77
2023/04/30 07:01:05;;;;;;;7.43;4.13;;;16.90;70.90;;;;;;4909753;29;20642;-77
2023/04/30 07:03:34;;;;;;;8.27;5.23;;;17.10;70.70;;;;;;4911972;29;20208;-78
2023/04/30 07:06:03;;;;;;;9.30;5.20;;;17.20;70.50;;;;;;4905083;29;20321;-77
2023/04/30 07:08:33;;;;;;;11.37;6.27;;;17.30;70.00;;;;;;4906465;29;20206;-78
2023/04/30 07:11:01;;;;;;;11.40;5.20;;;17.30;69.40;;;;;;4908014;29;20631;-80
2023/04/30 07:13:30;;;;;;;11.97;6.17;;;17.40;69.60;;;;;;4911318;29;20203;-79
2023/04/30 07:15:58;;;;;;;8.20;5.00;;;17.50;69.20;;;;;;4915399;29;20203;-78
2023/04/30 07:18:27;;;;;;;8.43;4.70;;;17.60;69.20;;;;;;4909713;29;20207;-78
2023/04/30 07:20:55;;;;;;;9.30;5.10;;;17.70;69.40;;;;;;4909696;29;20200;-77
2023/04/30 07:23:24;;;;;;;8.33;4.07;;;17.80;67.90;;;;;;4911879;29;20601;-77
2023/04/30 07:25:53;;;;;;;10.33;6.27;;;17.80;67.20;;;;;;4910930;29;20715;-77
2023/04/30 07:28:22;;;;;;;10.73;5.50;;;17.90;66.60;;;;;;4913440;29;20200;-78
2023/04/30 07:30:50;;;;;;;8.60;5.30;;;17.90;66.60;;;;;;4911082;29;20261;-77
2023/04/30 07:33:18;;;;;;;10.60;4.47;;;18.00;66.60;;;;;;4914831;29;20242;-77
2023/04/30 07:35:47;;;;;;;6.03;3.20;;;18.10;65.60;;;;;;4914161;29;20207;-78
2023/04/30 07:38:18;;;;;;;7.97;3.33;;;18.10;62.90;;;;;;4907587;29;20448;-79
2023/04/30 07:40:46;;;;;;;8.10;3.57;;;18.10;63.90;;;;;;4911411;29;20670;-77
2023/04/30 07:43:16;;;;;;;6.87;3.20;;;18.20;63.40;;;;;;4907329;29;20206;-79
2023/04/30 07:45:44;;;;;;;5.33;2.87;;;18.20;63.80;;;;;;4901884;29;20553;-77
2023/04/30 07:48:16;;;;;;;6.53;3.33;;;18.30;64.10;;;;;;4907425;29;20209;-78
2023/04/30 07:50:47;;;;;;;4.83;2.73;;;18.30;62.70;;;;;;4915854;29;20204;-77
2023/04/30 07:53:22;;;;;;;5.40;3.20;;;18.40;63.00;;;;;;4911054;29;20680;-79
2023/04/30 07:56:04;;;;;;;6.27;3.37;;;18.50;62.80;;;;;;4915261;29;20298;-78
2023/04/30 07:58:38;;;;;;;5.03;2.80;;;18.50;61.80;;;;;;4909428;29;20242;-75
2023/04/30 08:01:07;;;;;;;5.57;2.17;;;18.60;60.90;;;;;;4908554;29;20608;-79
2023/04/30 08:03:35;;;;;;;4.20;1.87;;;18.60;61.40;;;;;;4903671;29;20219;-77
2023/04/30 08:06:05;;;;;;;3.93;2.23;;;18.70;60.90;;;;;;4915338;29;20661;-77
2023/04/30 08:08:34;;;;;;;5.37;2.00;;;18.80;60.80;;;;;;4909083;29;20279;-79
2023/04/30 08:11:02;;;;;;;3.60;2.27;;;18.80;59.80;;;;;;4912408;29;20207;-77
2023/04/30 08:13:31;;;;;;;7.57;2.67;;;18.90;59.80;;;;;;4912187;29;20204;-77
2023/04/30 08:16:01;;;;;;;2.87;1.50;;;18.90;59.70;;;;;;4909637;29;20207;-77
2023/04/30 08:18:30;;;;;;;7.23;1.80;;;19.00;59.10;;;;;;4908519;29;20239;-78
2023/04/30 08:20:59;;;;;;;2.90;1.60;;;19.10;59.40;;;;;;4910445;29;20199;-77
2023/04/30 08:23:28;;;;;;;2.70;2.00;;;19.10;58.60;;;;;;4911071;29;20199;-77
2023/04/30 08:25:56;;;;;;;3.37;1.80;;;19.20;58.40;;;;;;4913046;29;20207;-78
2023/04/30 08:28:24;;;;;;;7.93;2.47;;;19.30;57.50;;;;;;4909780;29;20195;-78
2023/04/30 08:30:54;;;;;;;5.40;2.27;;;19.20;56.70;;;;;;4910570;29;20865;-78
2023/04/30 08:33:24;;;;;;;4.33;2.03;;;19.30;58.10;;;;;;4910829;29;20212;-80
2023/04/30 08:35:53;;;;;;;6.90;2.20;;;19.30;57.50;;;;;;4900657;29;20562;-78
2023/04/30 08:38:21;;;;;;;5.10;2.40;;;19.40;57.80;;;;;;4912983;29;20219;-78
2023/04/30 08:41:05;;;;;;;5.17;2.83;;;19.50;58.30;;;;;;4903288;29;20200;-77
2023/04/30 08:43:35;;;;;;;3.57;1.80;;;19.40;58.20;;;;;;4909518;29;20208;-79
2023/04/30 08:46:05;;;;;;;6.17;2.27;;;19.50;58.50;;;;;;4888831;29;20256;-79
2023/04/30 08:48:35;;;;;;;7.37;3.13;;;19.50;57.60;;;;;;4911518;29;20306;-80
2023/04/30 08:51:04;;;;;;;6.40;1.90;;;19.50;57.20;;;;;;4861700;29;20285;-77
2023/04/30 08:53:36;;;;;;;2.77;1.90;;;19.50;57.30;;;;;;4910048;29;20294;-77
2023/04/30 08:56:05;;;;;;;3.90;1.60;;;19.60;57.80;;;;;;4909754;29;20200;-79
2023/04/30 08:58:34;;;;;;;4.30;1.90;;;19.60;56.60;;;;;;4911255;29;20227;-79
2023/04/30 09:01:03;;;;;;;7.87;2.93;;;19.70;57.60;;;;;;4913743;29;20210;-77
2023/04/30 09:03:31;;;;;;;7.10;2.93;;;19.70;58.00;;;;;;4907610;29;21005;-77
2023/04/30 09:06:01;;;;;;;4.17;2.03;;;19.80;58.30;;;;;;4910313;29;20661;-77
2023/04/30 09:08:43;;;;;;;4.73;2.40;;;19.80;58.40;;;;;;4910461;29;20203;-77
2023/04/30 09:11:32;;;;;;;5.70;2.65;;;19.80;56.90;;;;;;4910455;29;20621;-79
2023/04/30 09:14:01;;;;;;;4.17;2.10;;;19.80;57.10;;;;;;4905085;29;20229;-78
2023/04/30 09:16:44;;;;;;;4.28;2.03;;;19.80;57.50;;;;;;4907092;29;20548;-78
2023/04/30 09:19:24;;;;;;;6.10;2.80;;;19.80;57.40;;;;;;4906874;29;20598;-79
2023/04/30 09:21:54;;;;;;;4.22;2.03;;;19.80;57.30;;;;;;4902760;29;20203;-78
2023/04/30 09:24:23;;;;;;;3.50;2.23;;;19.90;57.80;;;;;;4904350;29;20206;-80
2023/04/30 09:26:52;;;;;;;3.78;2.42;;;19.90;57.90;;;;;;4904618;29;20213;-77
2023/04/30 09:29:20;;;;;;;3.83;1.95;;;19.90;58.00;;;;;;4905389;29;20200;-76
2023/04/30 09:31:48;;;;;;;6.88;2.45;;;20.00;58.30;;;;;;4908259;29;20208;-78
2023/04/30 09:34:17;;;;;;;3.78;2.08;;;20.00;58.40;;;;;;4910612;29;20203;-78
2023/04/30 09:36:54;;;;;;;3.88;2.22;;;20.10;58.40;;;;;;4909627;29;20553;-77
2023/04/30 09:39:23;;;;;;;8.57;2.83;;;20.10;59.20;;;;;;4908854;29;20203;-76
2023/04/30 09:41:52;;;;;;;5.75;2.88;;;20.20;58.10;;;;;;4909422;29;20200;-75
2023/04/30 09:44:32;;;;;;;5.57;2.92;;;20.20;57.90;;;;;;4899613;29;20211;-78
2023/04/30 09:47:00;;;;;;;4.93;2.28;;;20.20;57.60;;;;;;4903724;29;20223;-79
2023/04/30 09:49:28;;;;;;;2.50;1.70;;;20.20;57.30;;;;;;4904796;29;20642;-78
2023/04/30 09:52:00;;;;;;;5.63;1.95;;;20.20;57.50;;;;;;4907493;29;20196;-78
2023/04/30 09:54:30;;;;;;;2.78;1.63;;;20.30;57.00;;;;;;4909109;29;20644;-77
2023/04/30 09:57:21;;;;;;;4.38;1.67;;;20.30;56.10;;;;;;4902110;29;20211;-78
2023/04/30 09:59:54;;;;;;;3.75;2.15;;;20.30;56.20;;;;;;4905126;29;20384;-77
2023/04/30 10:02:26;;;;;;;6.50;3.25;;;20.30;55.70;;;;;;4908985;29;20956;-77
2023/04/30 10:05:34;;;;;;;4.05;1.63;;;20.30;56.10;;;;;;4910195;29;20576;-81
2023/04/30 10:08:10;;;;;;;2.95;1.30;;;20.40;55.50;;;;;;4906577;29;20709;-80
2023/04/30 10:10:40;;;;;;;3.65;1.60;;;20.50;54.70;;;;;;4907934;29;20204;-81
2023/04/30 10:13:13;;;;;;;6.95;2.03;;;20.60;54.70;;;;;;4911058;29;20200;-79
2023/04/30 10:16:07;;;;;;;5.13;2.30;;;20.70;55.40;;;;;;4911698;29;20271;-79
2023/04/30 10:18:50;;;;;;;2.97;2.05;;;20.70;55.40;;;;;;4908462;29;20242;-82
2023/04/30 10:21:23;;;;;;;6.70;2.72;;;20.80;54.20;;;;;;4914204;29;20557;-80
2023/04/30 10:23:54;;;;;;;16.08;5.47;;;20.80;53.90;;;;;;4911489;29;20203;-81
2023/04/30 10:26:23;;;;;;;4.45;2.20;;;20.80;54.60;;;;;;4901391;29;20200;-79
2023/04/30 10:28:54;;;;;;;4.82;2.90;;;20.80;54.60;;;;;;4909996;29;20918;-80
2023/04/30 10:31:22;;;;;;;5.60;2.72;;;20.80;55.00;;;;;;4912467;29;20231;-78
2023/04/30 10:33:59;;;;;;;5.13;2.65;;;20.90;54.70;;;;;;4903906;29;20209;-79
2023/04/30 10:36:35;;;;;;;7.88;3.00;;;20.90;54.50;;;;;;4900156;29;20203;-77
2023/04/30 10:39:27;;;;;;;5.60;1.88;;;21.00;55.00;;;;;;4911422;29;20211;-81
2023/04/30 10:42:02;;;;;;;6.07;2.08;;;21.00;54.20;;;;;;4907048;29;20208;-84
2023/04/30 10:44:33;;;;;;;38.10;15.85;;;21.10;54.60;;;;;;4904922;29;20230;-83
2023/04/30 10:47:03;;;;;;;15.20;8.13;;;21.20;53.70;;;;;;4906891;29;20204;-79
2023/04/30 10:49:32;;;;;;;7.10;2.95;;;21.30;54.30;;;;;;4906867;29;20230;-80
2023/04/30 10:52:14;;;;;;;11.25;6.15;;;21.30;54.00;;;;;;4910515;29;20307;-79
2023/04/30 10:54:50;;;;;;;14.82;7.43;;;21.30;52.90;;;;;;4912332;29;20704;-80
2023/04/30 10:57:21;;;;;;;13.30;5.82;;;21.30;53.60;;;;;;4913729;29;20250;-77
2023/04/30 10:59:53;;;;;;;5.10;3.60;;;21.50;53.90;;;;;;4910387;29;20684;-78
2023/04/30 11:02:22;;;;;;;5.38;3.28;;;21.60;54.20;;;;;;4907357;29;20570;-76
2023/04/30 11:05:11;;;;;;;6.93;3.00;;;21.70;54.40;;;;;;4911753;29;20255;-77
2023/04/30 11:07:49;;;;;;;4.43;1.88;;;21.70;53.00;;;;;;4910675;29;20224;-76
2023/04/30 11:10:33;;;;;;;6.43;3.28;;;21.60;52.70;;;;;;4903913;29;20196;-78
2023/04/30 11:16:09;;;;;;;43.42;18.65;;;21.70;51.70;;;;;;4910506;29;20255;-83
2023/04/30 11:18:43;;;;;;;29.63;9.48;;;21.80;51.80;;;;;;4911599;29;20676;-78
2023/04/30 11:21:12;;;;;;;15.32;10.45;;;21.90;51.70;;;;;;4912147;29;20195;-78
2023/04/30 11:23:43;;;;;;;19.95;12.15;;;22.00;51.90;;;;;;4913714;29;20235;-80
2023/04/30 11:26:12;;;;;;;13.98;7.65;;;22.00;52.00;;;;;;4903136;29;20523;-79
2023/04/30 11:28:52;;;;;;;25.02;12.63;;;22.10;51.70;;;;;;4910459;29;20204;-78
2023/04/30 11:31:20;;;;;;;6.65;3.58;;;22.20;51.50;;;;;;4907266;29;20238;-79
2023/04/30 11:33:50;;;;;;;11.57;6.40;;;22.20;50.40;;;;;;4909899;29;20272;-79
2023/04/30 11:36:20;;;;;;;35.28;16.92;;;22.30;50.70;;;;;;4908456;29;20208;-77
2023/04/30 11:38:48;;;;;;;11.82;5.50;;;22.40;51.00;;;;;;4911974;29;20279;-80
2023/04/30 11:41:22;;;;;;;6.25;2.92;;;22.40;50.70;;;;;;4914048;29;20720;-81
2023/04/30 11:43:50;;;;;;;4.63;2.00;;;22.40;50.40;;;;;;4910182;29;20228;-80
2023/04/30 11:46:18;;;;;;;3.03;1.58;;;22.40;49.70;;;;;;4914997;29;20215;-79
2023/04/30 11:48:47;;;;;;;2.95;1.80;;;22.50;50.20;;;;;;4912531;29;20248;-79
2023/04/30 11:51:20;;;;;;;3.10;1.58;;;22.60;50.60;;;;;;4912377;29;20207;-77
2023/04/30 11:53:50;;;;;;;4.13;1.55;;;22.60;50.50;;;;;;4908249;29;20212;-79
2023/04/30 11:56:20;;;;;;;2.80;1.42;;;22.60;49.80;;;;;;4909335;29;20224;-77
2023/04/30 11:58:50;;;;;;;3.67;1.75;;;22.70;50.20;;;;;;4909589;29;20581;-80
2023/04/30 12:01:21;;;;;;;2.63;1.52;;;22.70;50.30;;;;;;4911887;29;20207;-79
2023/04/30 12:03:51;;;;;;;1.75;1.27;;;22.70;49.90;;;;;;4912078;29;20755;-79
2023/04/30 12:06:24;;;;;;;3.42;1.88;;;22.80;49.80;;;;;;4909714;29;20666;-80
2023/04/30 12:08:54;;;;;;;4.82;1.95;;;22.80;49.40;;;;;;4912379;29;20307;-82
2023/04/30 12:11:25;;;;;;;6.03;2.47;;;22.80;49.40;;;;;;4910501;29;20204;-78
2023/04/30 12:13:54;;;;;;;4.15;2.80;;;22.80;49.80;;;;;;4910438;29;20606;-79
2023/04/30 12:16:24;;;;;;;3.80;1.98;;;22.90;50.00;;;;;;4913045;29;20250;-78
2023/04/30 12:18:53;;;;;;;5.70;2.55;;;22.90;50.40;;;;;;4906762;29;20211;-80
2023/04/30 12:21:22;;;;;;;3.17;1.30;;;22.90;50.40;;;;;;4912922;29;20206;-76
2023/04/30 12:23:51;;;;;;;2.38;1.42;;;22.90;49.40;;;;;;4911241;29;20215;-79
2023/04/30 12:26:19;;;;;;;2.70;1.40;;;23.00;49.90;;;;;;4912128;29;20211;-78
2023/04/30 12:28:52;;;;;;;6.03;1.85;;;23.00;48.90;;;;;;4912379;29;20585;-79
2023/04/30 12:31:20;;;;;;;4.43;2.55;;;23.00;48.90;;;;;;4910245;29;20266;-79
2023/04/30 12:33:56;;;;;;;3.88;1.70;;;23.10;49.70;;;;;;4904871;29;20205;-80
2023/04/30 12:36:35;;;;;;;3.50;1.35;;;23.00;48.60;;;;;;4904549;29;20207;-80
2023/04/30 12:39:08;;;;;;;2.25;1.25;;;23.10;48.60;;;;;;4913390;29;20594;-79
2023/04/30 12:41:40;;;;;;;3.00;1.10;;;23.20;49.10;;;;;;4907322;29;20301;-78
2023/04/30 12:44:17;;;;;;;4.15;1.92;;;23.30;49.20;;;;;;4914447;29;20195;-79
2023/04/30 12:46:46;;;;;;;5.45;1.90;;;23.20;49.10;;;;;;4914465;29;20752;-79
2023/04/30 12:49:24;;;;;;;14.57;2.45;;;23.30;49.80;;;;;;4910718;29;20195;-81
2023/04/30 12:51:59;;;;;;;2.97;1.25;;;23.30;49.00;;;;;;4904655;29;20204;-81
2023/04/30 12:54:28;;;;;;;2.45;1.23;;;23.40;48.90;;;;;;4911496;29;20835;-81
2023/04/30 12:57:00;;;;;;;1.52;0.70;;;23.40;48.50;;;;;;4911431;29;20208;-78
2023/04/30 12:59:30;;;;;;;3.35;1.38;;;23.50;48.40;;;;;;4913550;29;20310;-80
2023/04/30 13:02:08;;;;;;;1.88;1.30;;;23.50;48.30;;;;;;4912422;29;20276;-83
2023/04/30 13:04:37;;;;;;;2.10;0.75;;;23.60;48.10;;;;;;4899679;29;20196;-81
2023/04/30 13:07:06;;;;;;;3.55;1.10;;;23.70;48.40;;;;;;4898667;29;20201;-83